PWSweather.com
Personal Weather Stations
Station Observations
NAGEO265NE
Bedzin GrodziecPL 42-506

Bedzin GrodziecPL 42-506

Lat: 50.347, Lon: 19.079

Elevation: 948

Station Type: WH1080

http://www.meteo-grodziec.pl/

High Low Average
Temperature 71.8°F22.1°C 58.3°F14.6°C 62.5°F16.9°C
Dew Point 60.6°F15.9°C 55.8°F13.2°C 58.0°F14.4°C
Winds 6.0 mph 9.7 kmh Calm Calm 1.0 mph ESE1.6 kmh ESE
Wind Gusts 13.0 mph20.9 kmh -- 4.0 mph6.4 kmh
Humidity 96% 63% 86%
Pressure 29.83 in1010.2 mb 29.76 in1007.8 mb -
Precipitation 0.16 in4.1 mm - -
Hour Temp Dew Point Humidity Winds Wind Gusts Pressure Precip Precip Rate Daily Precip Total
12:00 AM 60.4°F15.8°C 55.9°F13.3°C 85% Calm Calm -- 29.81 in1009.5 mb 0.00 in0.0 mm 0.00 in0.0 mm 0.00 in0.0 mm
12:05 AM 60.4°F15.8°C 55.9°F13.3°C 85% Calm Calm -- 29.81 in1009.5 mb 0.00 in0.0 mm 0.00 in0.0 mm 0.00 in0.0 mm
12:10 AM 60.4°F15.8°C 55.9°F13.3°C 85% Calm Calm -- 29.81 in1009.5 mb 0.00 in0.0 mm 0.00 in0.0 mm 0.00 in0.0 mm
12:15 AM 60.3°F15.7°C 55.8°F13.2°C 85% Calm Calm -- 29.81 in1009.5 mb 0.00 in0.0 mm 0.00 in0.0 mm 0.00 in0.0 mm
12:20 AM 60.3°F15.7°C 56.1°F13.4°C 86% Calm Calm -- 29.81 in1009.5 mb 0.00 in0.0 mm 0.00 in0.0 mm 0.00 in0.0 mm
12:25 AM 60.3°F15.7°C 56.1°F13.4°C 86% Calm Calm -- 29.81 in1009.5 mb 0.00 in0.0 mm 0.00 in0.0 mm 0.00 in0.0 mm
12:30 AM 60.3°F15.7°C 56.1°F13.4°C 86% Calm Calm -- 29.80 in1009.1 mb 0.00 in0.0 mm 0.00 in0.0 mm 0.00 in0.0 mm
12:35 AM 60.3°F15.7°C 56.1°F13.4°C 86% Calm Calm -- 29.80 in1009.1 mb 0.00 in0.0 mm 0.00 in0.0 mm 0.00 in0.0 mm
12:40 AM 60.3°F15.7°C 55.9°F13.3°C 86% Calm Calm -- 29.80 in1009.1 mb 0.00 in0.0 mm 0.00 in0.0 mm 0.00 in0.0 mm
12:45 AM 60.3°F15.7°C 56.3°F13.5°C 87% Calm Calm -- 29.80 in1009.1 mb 0.00 in0.0 mm 0.00 in0.0 mm 0.00 in0.0 mm
12:50 AM 60.3°F15.7°C 56.3°F13.5°C 87% Calm Calm -- 29.80 in1009.1 mb 0.00 in0.0 mm 0.00 in0.0 mm 0.00 in0.0 mm
12:55 AM 60.3°F15.7°C 56.3°F13.5°C 87% Calm Calm -- 29.80 in1009.1 mb 0.00 in0.0 mm 0.00 in0.0 mm 0.00 in0.0 mm
01:00 AM 60.1°F15.6°C 56.5°F13.6°C 88% Calm Calm -- 29.80 in1009.1 mb 0.00 in0.0 mm 0.00 in0.0 mm 0.00 in0.0 mm
01:05 AM 60.1°F15.6°C 56.5°F13.6°C 88% Calm Calm -- 29.80 in1009.1 mb 0.00 in0.0 mm 0.00 in0.0 mm 0.00 in0.0 mm
01:10 AM 60.1°F15.6°C 56.8°F13.8°C 89% Calm Calm -- 29.80 in1009.1 mb 0.00 in0.0 mm 0.00 in0.0 mm 0.00 in0.0 mm
01:15 AM 60.1°F15.6°C 56.8°F13.8°C 89% Calm Calm -- 29.80 in1009.1 mb 0.00 in0.0 mm 0.00 in0.0 mm 0.00 in0.0 mm
01:20 AM 60.1°F15.6°C 56.7°F13.7°C 89% Calm Calm -- 29.80 in1009.1 mb 0.00 in0.0 mm 0.00 in0.0 mm 0.00 in0.0 mm
01:25 AM 60.1°F15.6°C 56.7°F13.7°C 89% Calm Calm -- 29.80 in1009.1 mb 0.00 in0.0 mm 0.00 in0.0 mm 0.00 in0.0 mm
01:30 AM 60.1°F15.6°C 57.0°F13.9°C 90% Calm Calm -- 29.80 in1009.1 mb 0.00 in0.0 mm 0.00 in0.0 mm 0.00 in0.0 mm
01:35 AM 59.9°F15.5°C 57.0°F13.9°C 90% Calm Calm -- 29.80 in1009.1 mb 0.00 in0.0 mm 0.00 in0.0 mm 0.00 in0.0 mm
01:40 AM 59.9°F15.5°C 57.0°F13.9°C 90% Calm Calm -- 29.79 in1008.8 mb 0.00 in0.0 mm 0.00 in0.0 mm 0.00 in0.0 mm
01:45 AM 59.9°F15.5°C 57.0°F13.9°C 90% Calm Calm -- 29.79 in1008.8 mb 0.00 in0.0 mm 0.00 in0.0 mm 0.00 in0.0 mm
01:50 AM 59.9°F15.5°C 57.0°F13.9°C 90% Calm Calm -- 29.79 in1008.8 mb 0.00 in0.0 mm 0.00 in0.0 mm 0.00 in0.0 mm
01:55 AM 59.9°F15.5°C 57.0°F13.9°C 90% Calm Calm -- 29.79 in1008.8 mb 0.00 in0.0 mm 0.00 in0.0 mm 0.00 in0.0 mm
02:00 AM 59.7°F15.4°C 57.2°F14.0°C 91% Calm Calm -- 29.79 in1008.8 mb 0.00 in0.0 mm 0.00 in0.0 mm 0.00 in0.0 mm
02:05 AM 59.7°F15.4°C 57.2°F14.0°C 91% Calm Calm -- 29.79 in1008.8 mb 0.00 in0.0 mm 0.00 in0.0 mm 0.00 in0.0 mm
02:10 AM 59.7°F15.4°C 57.0°F13.9°C 91% Calm Calm -- 29.79 in1008.8 mb 0.00 in0.0 mm 0.00 in0.0 mm 0.00 in0.0 mm
02:15 AM 59.7°F15.4°C 57.0°F13.9°C 91% Calm Calm -- 29.79 in1008.8 mb 0.00 in0.0 mm 0.00 in0.0 mm 0.00 in0.0 mm
02:20 AM 59.5°F15.3°C 57.2°F14.0°C 92% Calm Calm -- 29.78 in1008.5 mb 0.00 in0.0 mm 0.00 in0.0 mm 0.00 in0.0 mm
02:25 AM 59.5°F15.3°C 57.2°F14.0°C 92% Calm Calm -- 29.78 in1008.5 mb 0.00 in0.0 mm 0.00 in0.0 mm 0.00 in0.0 mm
02:30 AM 59.5°F15.3°C 57.2°F14.0°C 92% Calm Calm -- 29.78 in1008.5 mb 0.00 in0.0 mm 0.00 in0.0 mm 0.00 in0.0 mm
02:35 AM 59.5°F15.3°C 57.2°F14.0°C 92% Calm Calm -- 29.78 in1008.5 mb 0.00 in0.0 mm 0.00 in0.0 mm 0.00 in0.0 mm
02:40 AM 59.5°F15.3°C 57.2°F14.0°C 92% Calm Calm -- 29.78 in1008.5 mb 0.00 in0.0 mm 0.00 in0.0 mm 0.00 in0.0 mm
02:45 AM 59.4°F15.2°C 57.4°F14.1°C 93% Calm Calm -- 29.78 in1008.5 mb 0.00 in0.0 mm 0.00 in0.0 mm 0.00 in0.0 mm
02:50 AM 59.4°F15.2°C 57.4°F14.1°C 93% Calm Calm -- 29.78 in1008.5 mb 0.00 in0.0 mm 0.00 in0.0 mm 0.00 in0.0 mm
02:55 AM 59.4°F15.2°C 57.2°F14.0°C 93% Calm Calm -- 29.78 in1008.5 mb 0.00 in0.0 mm 0.00 in0.0 mm 0.00 in0.0 mm
03:00 AM 59.4°F15.2°C 57.2°F14.0°C 93% Calm Calm -- 29.77 in1008.1 mb 0.00 in0.0 mm 0.00 in0.0 mm 0.00 in0.0 mm
03:05 AM 59.2°F15.1°C 57.2°F14.0°C 93% Calm Calm 1.0 mph1.6 kmh 29.77 in1008.1 mb 0.00 in0.0 mm 0.00 in0.0 mm 0.00 in0.0 mm
03:10 AM 59.2°F15.1°C 57.2°F14.0°C 93% Calm Calm 1.0 mph1.6 kmh 29.77 in1008.1 mb 0.00 in0.0 mm 0.00 in0.0 mm 0.00 in0.0 mm
03:15 AM 59.2°F15.1°C 57.0°F13.9°C 93% Calm Calm -- 29.77 in1008.1 mb 0.00 in0.0 mm 0.00 in0.0 mm 0.00 in0.0 mm
03:20 AM 59.2°F15.1°C 57.0°F13.9°C 93% Calm Calm 1.0 mph1.6 kmh 29.77 in1008.1 mb 0.00 in0.0 mm 0.00 in0.0 mm 0.00 in0.0 mm
03:25 AM 59.0°F15.0°C 57.0°F13.9°C 93% Calm Calm 1.0 mph1.6 kmh 29.78 in1008.5 mb 0.00 in0.0 mm 0.00 in0.0 mm 0.00 in0.0 mm
03:30 AM 58.8°F14.9°C 56.8°F13.8°C 93% Calm Calm -- 29.78 in1008.5 mb 0.00 in0.0 mm 0.00 in0.0 mm 0.00 in0.0 mm
03:35 AM 58.6°F14.8°C 57.0°F13.9°C 94% Calm Calm -- 29.78 in1008.5 mb 0.00 in0.0 mm 0.00 in0.0 mm 0.00 in0.0 mm
03:40 AM 58.6°F14.8°C 57.0°F13.9°C 94% Calm Calm -- 29.78 in1008.5 mb 0.00 in0.0 mm 0.00 in0.0 mm 0.00 in0.0 mm
03:45 AM 58.6°F14.8°C 56.8°F13.8°C 94% Calm Calm -- 29.78 in1008.5 mb 0.00 in0.0 mm 0.00 in0.0 mm 0.00 in0.0 mm
03:50 AM 58.6°F14.8°C 56.8°F13.8°C 94% Calm Calm -- 29.78 in1008.5 mb 0.00 in0.0 mm 0.00 in0.0 mm 0.00 in0.0 mm
03:55 AM 58.6°F14.8°C 56.8°F13.8°C 94% Calm Calm -- 29.78 in1008.5 mb 0.01 in0.3 mm 0.12 in3.0 mm 0.01 in0.3 mm
04:00 AM 58.6°F14.8°C 57.0°F13.9°C 94% Calm Calm -- 29.78 in1008.5 mb 0.01 in0.3 mm 0.00 in0.0 mm 0.01 in0.3 mm
04:05 AM 58.6°F14.8°C 56.8°F13.8°C 94% Calm Calm -- 29.78 in1008.5 mb 0.01 in0.3 mm 0.00 in0.0 mm 0.01 in0.3 mm
04:10 AM 58.5°F14.7°C 56.8°F13.8°C 94% Calm Calm -- 29.78 in1008.5 mb 0.02 in0.5 mm 0.12 in3.0 mm 0.02 in0.5 mm
04:15 AM 58.5°F14.7°C 56.8°F13.8°C 94% Calm Calm -- 29.78 in1008.5 mb 0.02 in0.5 mm 0.00 in0.0 mm 0.02 in0.5 mm
04:20 AM 58.5°F14.7°C 56.7°F13.7°C 94% Calm Calm -- 29.78 in1008.5 mb 0.02 in0.5 mm 0.00 in0.0 mm 0.02 in0.5 mm
04:25 AM 58.3°F14.6°C 56.7°F13.7°C 94% Calm Calm -- 29.78 in1008.5 mb 0.02 in0.5 mm 0.00 in0.0 mm 0.02 in0.5 mm
04:30 AM 58.5°F14.7°C 57.0°F13.9°C 95% Calm Calm -- 29.78 in1008.5 mb 0.02 in0.5 mm 0.00 in0.0 mm 0.02 in0.5 mm
04:35 AM 58.6°F14.8°C 57.2°F14.0°C 95% Calm Calm -- 29.78 in1008.5 mb 0.02 in0.5 mm 0.00 in0.0 mm 0.02 in0.5 mm
04:40 AM 58.6°F14.8°C 57.2°F14.0°C 95% Calm Calm -- 29.78 in1008.5 mb 0.02 in0.5 mm 0.00 in0.0 mm 0.02 in0.5 mm
04:45 AM 58.6°F14.8°C 57.2°F14.0°C 95% Calm Calm 1.0 mph1.6 kmh 29.78 in1008.5 mb 0.03 in0.8 mm 0.12 in3.0 mm 0.03 in0.8 mm
04:50 AM 58.5°F14.7°C 57.0°F13.9°C 95% Calm Calm 1.0 mph1.6 kmh 29.78 in1008.5 mb 0.03 in0.8 mm 0.00 in0.0 mm 0.03 in0.8 mm
04:55 AM 58.5°F14.7°C 57.0°F13.9°C 95% Calm Calm -- 29.78 in1008.5 mb 0.02 in0.5 mm 0.00 in0.0 mm 0.03 in0.8 mm
05:00 AM 58.5°F14.7°C 57.0°F13.9°C 95% Calm Calm -- 29.78 in1008.5 mb 0.03 in0.8 mm 0.01 in0.3 mm 0.04 in1.0 mm
05:05 AM 58.5°F14.7°C 57.0°F13.9°C 95% Calm Calm -- 29.78 in1008.5 mb 0.03 in0.8 mm 0.00 in0.0 mm 0.04 in1.0 mm
05:10 AM 58.5°F14.7°C 57.0°F13.9°C 95% Calm Calm -- 29.78 in1008.5 mb 0.03 in0.8 mm 0.00 in0.0 mm 0.05 in1.3 mm
05:15 AM 58.6°F14.8°C 57.2°F14.0°C 95% Calm Calm -- 29.78 in1008.5 mb 0.03 in0.8 mm 0.00 in0.0 mm 0.06 in1.5 mm
05:20 AM 58.6°F14.8°C 57.2°F14.0°C 95% Calm Calm -- 29.78 in1008.5 mb 0.03 in0.8 mm 0.00 in0.0 mm 0.06 in1.5 mm
05:25 AM 58.6°F14.8°C 57.2°F14.0°C 95% Calm Calm -- 29.78 in1008.5 mb 0.04 in1.0 mm 0.12 in3.0 mm 0.06 in1.5 mm
05:30 AM 58.6°F14.8°C 57.2°F14.0°C 95% Calm Calm -- 29.78 in1008.5 mb 0.04 in1.0 mm 0.00 in0.0 mm 0.06 in1.5 mm
05:35 AM 58.6°F14.8°C 57.4°F14.1°C 96% Calm Calm -- 29.78 in1008.5 mb 0.05 in1.3 mm 0.12 in3.0 mm 0.07 in1.8 mm
05:40 AM 58.6°F14.8°C 57.6°F14.2°C 96% Calm Calm -- 29.78 in1008.5 mb 0.04 in1.0 mm 0.00 in0.0 mm 0.07 in1.8 mm
05:45 AM 58.6°F14.8°C 57.6°F14.2°C 96% Calm Calm -- 29.77 in1008.1 mb 0.05 in1.3 mm 0.12 in3.0 mm 0.08 in2.0 mm
05:50 AM 58.6°F14.8°C 57.6°F14.2°C 96% Calm Calm -- 29.78 in1008.5 mb 0.06 in1.5 mm 0.12 in3.0 mm 0.09 in2.3 mm
05:55 AM 58.8°F14.9°C 57.7°F14.3°C 96% Calm Calm -- 29.77 in1008.1 mb 0.06 in1.5 mm 0.00 in0.0 mm 0.09 in2.3 mm
06:00 AM 58.8°F14.9°C 57.7°F14.3°C 96% Calm Calm -- 29.78 in1008.5 mb 0.07 in1.8 mm 0.01 in0.3 mm 0.11 in2.8 mm
06:05 AM 58.8°F14.9°C 57.7°F14.3°C 96% Calm Calm -- 29.78 in1008.5 mb 0.06 in1.5 mm 0.00 in0.0 mm 0.11 in2.8 mm
06:10 AM 58.8°F14.9°C 57.7°F14.3°C 96% Calm Calm -- 29.78 in1008.5 mb 0.07 in1.8 mm 0.12 in3.0 mm 0.12 in3.0 mm
06:15 AM 58.8°F14.9°C 57.7°F14.3°C 96% Calm Calm -- 29.78 in1008.5 mb 0.07 in1.8 mm 0.00 in0.0 mm 0.13 in3.3 mm
06:20 AM 58.8°F14.9°C 57.7°F14.3°C 96% Calm Calm -- 29.78 in1008.5 mb 0.07 in1.8 mm 0.00 in0.0 mm 0.13 in3.3 mm
06:25 AM 58.8°F14.9°C 57.7°F14.3°C 96% Calm Calm -- 29.78 in1008.5 mb 0.07 in1.8 mm 0.00 in0.0 mm 0.13 in3.3 mm
06:30 AM 59.0°F15.0°C 57.9°F14.4°C 96% Calm Calm -- 29.78 in1008.5 mb 0.07 in1.8 mm 0.00 in0.0 mm 0.13 in3.3 mm
06:35 AM 59.2°F15.1°C 57.9°F14.4°C 96% Calm Calm -- 29.78 in1008.5 mb 0.07 in1.8 mm 0.00 in0.0 mm 0.14 in3.6 mm
06:40 AM 59.2°F15.1°C 58.1°F14.5°C 96% Calm Calm -- 29.78 in1008.5 mb 0.08 in2.0 mm 0.12 in3.0 mm 0.15 in3.8 mm
06:45 AM 59.2°F15.1°C 58.1°F14.5°C 96% Calm Calm -- 29.78 in1008.5 mb 0.07 in1.8 mm 0.00 in0.0 mm 0.15 in3.8 mm
06:50 AM 59.2°F15.1°C 58.1°F14.5°C 96% Calm Calm -- 29.78 in1008.5 mb 0.06 in1.5 mm 0.00 in0.0 mm 0.15 in3.8 mm
06:55 AM 59.4°F15.2°C 58.1°F14.5°C 96% Calm Calm -- 29.78 in1008.5 mb 0.06 in1.5 mm 0.00 in0.0 mm 0.16 in4.1 mm
07:00 AM 59.4°F15.2°C 58.3°F14.6°C 96% Calm Calm -- 29.78 in1008.5 mb 0.05 in1.3 mm 0.00 in0.0 mm 0.16 in4.1 mm
07:05 AM 59.4°F15.2°C 58.3°F14.6°C 96% Calm Calm -- 29.78 in1008.5 mb 0.05 in1.3 mm 0.00 in0.0 mm 0.16 in4.1 mm
07:10 AM 59.5°F15.3°C 58.3°F14.6°C 96% Calm Calm -- 29.79 in1008.8 mb 0.04 in1.0 mm 0.00 in0.0 mm 0.16 in4.1 mm
07:15 AM 59.2°F15.1°C 58.1°F14.5°C 96% Calm Calm -- 29.79 in1008.8 mb 0.03 in0.8 mm 0.00 in0.0 mm 0.16 in4.1 mm
07:20 AM 59.4°F15.2°C 58.1°F14.5°C 96% Calm Calm -- 29.79 in1008.8 mb 0.03 in0.8 mm 0.00 in0.0 mm 0.16 in4.1 mm
07:25 AM 59.5°F15.3°C 58.3°F14.6°C 96% Calm Calm -- 29.79 in1008.8 mb 0.02 in0.5 mm 0.00 in0.0 mm 0.16 in4.1 mm
07:30 AM 59.5°F15.3°C 58.3°F14.6°C 96% Calm Calm -- 29.79 in1008.8 mb 0.02 in0.5 mm 0.00 in0.0 mm 0.16 in4.1 mm
07:35 AM 59.7°F15.4°C 58.6°F14.8°C 96% Calm Calm -- 29.79 in1008.8 mb 0.02 in0.5 mm 0.00 in0.0 mm 0.16 in4.1 mm
07:40 AM 59.7°F15.4°C 58.6°F14.8°C 96% Calm Calm 2.0 mph3.2 kmh 29.79 in1008.8 mb 0.01 in0.3 mm 0.00 in0.0 mm 0.16 in4.1 mm
07:45 AM 59.7°F15.4°C 58.6°F14.8°C 96% Calm Calm 5.0 mph8.0 kmh 29.79 in1008.8 mb 0.01 in0.3 mm 0.00 in0.0 mm 0.16 in4.1 mm
07:50 AM 59.5°F15.3°C 58.3°F14.6°C 96% 1.0 mph ENE1.6 kmh ENE 5.0 mph8.0 kmh 29.79 in1008.8 mb 0.01 in0.3 mm 0.00 in0.0 mm 0.16 in4.1 mm
07:55 AM 59.5°F15.3°C 58.3°F14.6°C 96% 1.0 mph ENE1.6 kmh ENE 4.0 mph6.4 kmh 29.79 in1008.8 mb 0.00 in0.0 mm 0.00 in0.0 mm 0.16 in4.1 mm
08:00 AM 59.5°F15.3°C 58.5°F14.7°C 96% 1.0 mph ENE1.6 kmh ENE 5.0 mph8.0 kmh 29.79 in1008.8 mb 0.00 in0.0 mm 0.00 in0.0 mm 0.16 in4.1 mm
08:05 AM 59.5°F15.3°C 58.3°F14.6°C 96% 1.0 mph ENE1.6 kmh ENE 5.0 mph8.0 kmh 29.79 in1008.8 mb 0.00 in0.0 mm 0.00 in0.0 mm 0.16 in4.1 mm
08:10 AM 59.5°F15.3°C 58.1°F14.5°C 95% 2.0 mph E3.2 kmh E 4.0 mph6.4 kmh 29.79 in1008.8 mb 0.00 in0.0 mm 0.00 in0.0 mm 0.16 in4.1 mm
08:15 AM 59.7°F15.4°C 58.3°F14.6°C 95% 2.0 mph E3.2 kmh E 6.0 mph9.7 kmh 29.79 in1008.8 mb 0.00 in0.0 mm 0.00 in0.0 mm 0.16 in4.1 mm
08:20 AM 60.1°F15.6°C 58.6°F14.8°C 95% 2.0 mph E3.2 kmh E 6.0 mph9.7 kmh 29.79 in1008.8 mb 0.00 in0.0 mm 0.00 in0.0 mm 0.16 in4.1 mm
08:25 AM 60.3°F15.7°C 58.8°F14.9°C 95% 2.0 mph E3.2 kmh E 6.0 mph9.7 kmh 29.79 in1008.8 mb 0.00 in0.0 mm 0.00 in0.0 mm 0.16 in4.1 mm
08:30 AM 60.4°F15.8°C 59.0°F15.0°C 95% 1.0 mph ENE1.6 kmh ENE 5.0 mph8.0 kmh 29.79 in1008.8 mb 0.00 in0.0 mm 0.00 in0.0 mm 0.16 in4.1 mm
08:35 AM 60.6°F15.9°C 58.8°F14.9°C 94% 1.0 mph ENE1.6 kmh ENE 5.0 mph8.0 kmh 29.79 in1008.8 mb 0.00 in0.0 mm 0.00 in0.0 mm 0.16 in4.1 mm
08:40 AM 60.8°F16.0°C 59.0°F15.0°C 94% 2.0 mph E3.2 kmh E 5.0 mph8.0 kmh 29.79 in1008.8 mb 0.00 in0.0 mm 0.00 in0.0 mm 0.16 in4.1 mm
08:45 AM 60.8°F16.0°C 59.0°F15.0°C 94% 2.0 mph E3.2 kmh E 5.0 mph8.0 kmh 29.79 in1008.8 mb 0.00 in0.0 mm 0.00 in0.0 mm 0.16 in4.1 mm
08:50 AM 60.8°F16.0°C 58.8°F14.9°C 93% 1.0 mph ENE1.6 kmh ENE 5.0 mph8.0 kmh 29.79 in1008.8 mb 0.00 in0.0 mm 0.00 in0.0 mm 0.16 in4.1 mm
08:55 AM 61.2°F16.2°C 59.0°F15.0°C 93% 1.0 mph E1.6 kmh E 4.0 mph6.4 kmh 29.79 in1008.8 mb 0.00 in0.0 mm 0.00 in0.0 mm 0.16 in4.1 mm
09:00 AM 61.2°F16.2°C 59.2°F15.1°C 93% Calm Calm 2.0 mph3.2 kmh 29.79 in1008.8 mb 0.00 in0.0 mm 0.00 in0.0 mm 0.16 in4.1 mm
09:05 AM 61.3°F16.3°C 59.2°F15.1°C 93% 1.0 mph ENE1.6 kmh ENE 5.0 mph8.0 kmh 29.79 in1008.8 mb 0.00 in0.0 mm 0.00 in0.0 mm 0.16 in4.1 mm
09:10 AM 61.9°F16.6°C 59.7°F15.4°C 93% 1.0 mph ENE1.6 kmh ENE 5.0 mph8.0 kmh 29.79 in1008.8 mb 0.00 in0.0 mm 0.00 in0.0 mm 0.16 in4.1 mm
09:15 AM 61.9°F16.6°C 59.5°F15.3°C 92% 1.0 mph ENE1.6 kmh ENE 4.0 mph6.4 kmh 29.79 in1008.8 mb 0.00 in0.0 mm 0.00 in0.0 mm 0.16 in4.1 mm
09:20 AM 61.7°F16.5°C 58.8°F14.9°C 90% 2.0 mph ENE3.2 kmh ENE 5.0 mph8.0 kmh 29.79 in1008.8 mb 0.00 in0.0 mm 0.00 in0.0 mm 0.16 in4.1 mm
09:25 AM 62.1°F16.7°C 59.4°F15.2°C 91% 2.0 mph ENE3.2 kmh ENE 5.0 mph8.0 kmh 29.79 in1008.8 mb 0.00 in0.0 mm 0.00 in0.0 mm 0.16 in4.1 mm
09:30 AM 62.2°F16.8°C 59.4°F15.2°C 90% 1.0 mph ENE1.6 kmh ENE 4.0 mph6.4 kmh 29.79 in1008.8 mb 0.00 in0.0 mm 0.00 in0.0 mm 0.16 in4.1 mm
09:35 AM 62.2°F16.8°C 59.7°F15.4°C 91% 1.0 mph E1.6 kmh E 2.0 mph3.2 kmh 29.79 in1008.8 mb 0.00 in0.0 mm 0.00 in0.0 mm 0.16 in4.1 mm
09:40 AM 62.1°F16.7°C 58.8°F14.9°C 89% 1.0 mph E1.6 kmh E 5.0 mph8.0 kmh 29.79 in1008.8 mb 0.00 in0.0 mm 0.00 in0.0 mm 0.16 in4.1 mm
09:45 AM 61.9°F16.6°C 58.5°F14.7°C 89% 1.0 mph E1.6 kmh E 5.0 mph8.0 kmh 29.79 in1008.8 mb 0.00 in0.0 mm 0.00 in0.0 mm 0.16 in4.1 mm
09:50 AM 61.7°F16.5°C 58.8°F14.9°C 90% 1.0 mph ENE1.6 kmh ENE 5.0 mph8.0 kmh 29.79 in1008.8 mb 0.00 in0.0 mm 0.00 in0.0 mm 0.16 in4.1 mm
09:55 AM 61.9°F16.6°C 58.8°F14.9°C 90% 1.0 mph ENE1.6 kmh ENE 5.0 mph8.0 kmh 29.79 in1008.8 mb 0.00 in0.0 mm 0.00 in0.0 mm 0.16 in4.1 mm
10:00 AM 61.9°F16.6°C 58.8°F14.9°C 90% 1.0 mph ENE1.6 kmh ENE 3.0 mph4.8 kmh 29.79 in1008.8 mb 0.00 in0.0 mm 0.00 in0.0 mm 0.16 in4.1 mm
10:05 AM 61.7°F16.5°C 58.8°F14.9°C 90% 1.0 mph E1.6 kmh E 4.0 mph6.4 kmh 29.79 in1008.8 mb 0.00 in0.0 mm 0.00 in0.0 mm 0.16 in4.1 mm
10:10 AM 61.7°F16.5°C 58.8°F14.9°C 90% 1.0 mph E1.6 kmh E 4.0 mph6.4 kmh 29.79 in1008.8 mb 0.00 in0.0 mm 0.00 in0.0 mm 0.16 in4.1 mm
10:15 AM 61.5°F16.4°C 58.6°F14.8°C 90% 1.0 mph ENE1.6 kmh ENE 6.0 mph9.7 kmh 29.79 in1008.8 mb 0.00 in0.0 mm 0.00 in0.0 mm 0.16 in4.1 mm
10:20 AM 61.7°F16.5°C 58.8°F14.9°C 90% 2.0 mph ENE3.2 kmh ENE 6.0 mph9.7 kmh 29.79 in1008.8 mb 0.00 in0.0 mm 0.00 in0.0 mm 0.16 in4.1 mm
10:25 AM 61.9°F16.6°C 59.2°F15.1°C 91% 1.0 mph E1.6 kmh E 4.0 mph6.4 kmh 29.79 in1008.8 mb 0.00 in0.0 mm 0.00 in0.0 mm 0.16 in4.1 mm
10:30 AM 62.1°F16.7°C 59.4°F15.2°C 91% Calm Calm 3.0 mph4.8 kmh 29.79 in1008.8 mb 0.00 in0.0 mm 0.00 in0.0 mm 0.16 in4.1 mm
10:35 AM 61.9°F16.6°C 59.0°F15.0°C 90% 1.0 mph E1.6 kmh E 4.0 mph6.4 kmh 29.79 in1008.8 mb 0.00 in0.0 mm 0.00 in0.0 mm 0.16 in4.1 mm
10:40 AM 62.2°F16.8°C 59.0°F15.0°C 89% 2.0 mph ENE3.2 kmh ENE 6.0 mph9.7 kmh 29.78 in1008.5 mb 0.00 in0.0 mm 0.00 in0.0 mm 0.16 in4.1 mm
10:45 AM 62.4°F16.9°C 58.6°F14.8°C 87% 3.0 mph ENE4.8 kmh ENE 6.0 mph9.7 kmh 29.78 in1008.5 mb 0.00 in0.0 mm 0.00 in0.0 mm 0.16 in4.1 mm
10:50 AM 63.0°F17.2°C 59.4°F15.2°C 88% 3.0 mph ENE4.8 kmh ENE 6.0 mph9.7 kmh 29.78 in1008.5 mb 0.00 in0.0 mm 0.00 in0.0 mm 0.16 in4.1 mm
10:55 AM 63.3°F17.4°C 59.4°F15.2°C 87% 2.0 mph ENE3.2 kmh ENE 8.0 mph12.9 kmh 29.79 in1008.8 mb 0.00 in0.0 mm 0.00 in0.0 mm 0.16 in4.1 mm
11:00 AM 63.0°F17.2°C 59.0°F15.0°C 87% 3.0 mph NE4.8 kmh NE 9.0 mph14.5 kmh 29.79 in1008.8 mb 0.00 in0.0 mm 0.00 in0.0 mm 0.16 in4.1 mm
11:05 AM 63.0°F17.2°C 59.0°F15.0°C 87% 4.0 mph NE6.4 kmh NE 9.0 mph14.5 kmh 29.79 in1008.8 mb 0.00 in0.0 mm 0.00 in0.0 mm 0.16 in4.1 mm
11:10 AM 63.1°F17.3°C 59.2°F15.1°C 87% 3.0 mph NE4.8 kmh NE 8.0 mph12.9 kmh 29.79 in1008.8 mb 0.00 in0.0 mm 0.00 in0.0 mm 0.16 in4.1 mm
11:15 AM 63.3°F17.4°C 59.4°F15.2°C 87% 4.0 mph NE6.4 kmh NE 9.0 mph14.5 kmh 29.79 in1008.8 mb 0.00 in0.0 mm 0.00 in0.0 mm 0.16 in4.1 mm
11:20 AM 63.3°F17.4°C 59.4°F15.2°C 87% 4.0 mph NE6.4 kmh NE 9.0 mph14.5 kmh 29.78 in1008.5 mb 0.00 in0.0 mm 0.00 in0.0 mm 0.16 in4.1 mm
11:25 AM 63.3°F17.4°C 59.0°F15.0°C 86% 4.0 mph NE6.4 kmh NE 8.0 mph12.9 kmh 29.78 in1008.5 mb 0.00 in0.0 mm 0.00 in0.0 mm 0.16 in4.1 mm
11:30 AM 63.3°F17.4°C 58.8°F14.9°C 85% 5.0 mph NE8.0 kmh NE 13.0 mph20.9 kmh 29.78 in1008.5 mb 0.00 in0.0 mm 0.00 in0.0 mm 0.16 in4.1 mm
11:35 AM 63.5°F17.5°C 58.8°F14.9°C 85% 5.0 mph NE8.0 kmh NE 13.0 mph20.9 kmh 29.78 in1008.5 mb 0.00 in0.0 mm 0.00 in0.0 mm 0.16 in4.1 mm
11:40 AM 63.9°F17.7°C 59.0°F15.0°C 84% 6.0 mph NE9.7 kmh NE 11.0 mph17.7 kmh 29.78 in1008.5 mb 0.00 in0.0 mm 0.00 in0.0 mm 0.16 in4.1 mm
11:45 AM 64.6°F18.1°C 59.5°F15.3°C 84% 6.0 mph NE9.7 kmh NE 12.0 mph19.3 kmh 29.78 in1008.5 mb 0.00 in0.0 mm 0.00 in0.0 mm 0.16 in4.1 mm
11:50 AM 64.6°F18.1°C 58.8°F14.9°C 82% 6.0 mph NE9.7 kmh NE 12.0 mph19.3 kmh 29.78 in1008.5 mb 0.00 in0.0 mm 0.00 in0.0 mm 0.16 in4.1 mm
11:55 AM 64.0°F17.8°C 58.8°F14.9°C 83% 6.0 mph NE9.7 kmh NE 12.0 mph19.3 kmh 29.78 in1008.5 mb 0.00 in0.0 mm 0.00 in0.0 mm 0.16 in4.1 mm
12:00 PM 64.2°F17.9°C 58.6°F14.8°C 82% 6.0 mph NE9.7 kmh NE 12.0 mph19.3 kmh 29.78 in1008.5 mb 0.00 in0.0 mm 0.00 in0.0 mm 0.16 in4.1 mm
12:05 PM 64.9°F18.3°C 59.5°F15.3°C 83% 6.0 mph ENE9.7 kmh ENE 12.0 mph19.3 kmh 29.78 in1008.5 mb 0.00 in0.0 mm 0.00 in0.0 mm 0.16 in4.1 mm
12:10 PM 65.7°F18.7°C 59.5°F15.3°C 81% 5.0 mph ENE8.0 kmh ENE 12.0 mph19.3 kmh 29.78 in1008.5 mb 0.00 in0.0 mm 0.00 in0.0 mm 0.16 in4.1 mm
12:15 PM 65.7°F18.7°C 58.8°F14.9°C 79% 4.0 mph ENE6.4 kmh ENE 10.0 mph16.1 kmh 29.78 in1008.5 mb 0.00 in0.0 mm 0.00 in0.0 mm 0.16 in4.1 mm
12:20 PM 65.3°F18.5°C 59.0°F15.0°C 80% 5.0 mph ENE8.0 kmh ENE 11.0 mph17.7 kmh 29.78 in1008.5 mb 0.00 in0.0 mm 0.00 in0.0 mm 0.16 in4.1 mm
12:25 PM 65.1°F18.4°C 59.2°F15.1°C 81% 4.0 mph ENE6.4 kmh ENE 11.0 mph17.7 kmh 29.78 in1008.5 mb 0.00 in0.0 mm 0.00 in0.0 mm 0.16 in4.1 mm
12:30 PM 65.1°F18.4°C 58.5°F14.7°C 79% 4.0 mph ENE6.4 kmh ENE 10.0 mph16.1 kmh 29.78 in1008.5 mb 0.00 in0.0 mm 0.00 in0.0 mm 0.16 in4.1 mm
12:35 PM 65.8°F18.8°C 59.5°F15.3°C 80% 3.0 mph ENE4.8 kmh ENE 10.0 mph16.1 kmh 29.78 in1008.5 mb 0.00 in0.0 mm 0.00 in0.0 mm 0.16 in4.1 mm
12:40 PM 66.4°F19.1°C 59.2°F15.1°C 78% 2.0 mph ENE3.2 kmh ENE 9.0 mph14.5 kmh 29.78 in1008.5 mb 0.00 in0.0 mm 0.00 in0.0 mm 0.16 in4.1 mm
12:45 PM 65.8°F18.8°C 59.2°F15.1°C 79% 3.0 mph ENE4.8 kmh ENE 9.0 mph14.5 kmh 29.78 in1008.5 mb 0.00 in0.0 mm 0.00 in0.0 mm 0.16 in4.1 mm
12:50 PM 65.7°F18.7°C 58.6°F14.8°C 78% 3.0 mph ENE4.8 kmh ENE 8.0 mph12.9 kmh 29.78 in1008.5 mb 0.00 in0.0 mm 0.00 in0.0 mm 0.16 in4.1 mm
12:55 PM 65.8°F18.8°C 59.2°F15.1°C 79% 3.0 mph ENE4.8 kmh ENE 6.0 mph9.7 kmh 29.78 in1008.5 mb 0.00 in0.0 mm 0.00 in0.0 mm 0.16 in4.1 mm
01:00 PM 66.4°F19.1°C 58.8°F14.9°C 77% 2.0 mph NE3.2 kmh NE 7.0 mph11.3 kmh 29.77 in1008.1 mb 0.00 in0.0 mm 0.00 in0.0 mm 0.16 in4.1 mm
01:05 PM 66.4°F19.1°C 59.0°F15.0°C 77% 2.0 mph ENE3.2 kmh ENE 7.0 mph11.3 kmh 29.77 in1008.1 mb 0.00 in0.0 mm 0.00 in0.0 mm 0.16 in4.1 mm
01:10 PM 66.4°F19.1°C 58.6°F14.8°C 76% 2.0 mph ENE3.2 kmh ENE 7.0 mph11.3 kmh 29.77 in1008.1 mb 0.00 in0.0 mm 0.00 in0.0 mm 0.16 in4.1 mm
01:15 PM 66.7°F19.3°C 59.2°F15.1°C 77% 2.0 mph ENE3.2 kmh ENE 7.0 mph11.3 kmh 29.77 in1008.1 mb 0.00 in0.0 mm 0.00 in0.0 mm 0.16 in4.1 mm
01:20 PM 66.6°F19.2°C 58.5°F14.7°C 75% 3.0 mph ENE4.8 kmh ENE 8.0 mph12.9 kmh 29.77 in1008.1 mb 0.00 in0.0 mm 0.00 in0.0 mm 0.16 in4.1 mm
01:25 PM 66.4°F19.1°C 58.6°F14.8°C 76% 4.0 mph ENE6.4 kmh ENE 8.0 mph12.9 kmh 29.77 in1008.1 mb 0.00 in0.0 mm 0.00 in0.0 mm 0.16 in4.1 mm
01:30 PM 66.6°F19.2°C 58.6°F14.8°C 76% 2.0 mph ENE3.2 kmh ENE 8.0 mph12.9 kmh 29.77 in1008.1 mb 0.00 in0.0 mm 0.00 in0.0 mm 0.16 in4.1 mm
01:35 PM 66.4°F19.1°C 59.4°F15.2°C 78% 2.0 mph NE3.2 kmh NE 8.0 mph12.9 kmh 29.77 in1008.1 mb 0.00 in0.0 mm 0.00 in0.0 mm 0.16 in4.1 mm
01:40 PM 66.4°F19.1°C 58.5°F14.7°C 76% 3.0 mph NE4.8 kmh NE 8.0 mph12.9 kmh 29.77 in1008.1 mb 0.00 in0.0 mm 0.00 in0.0 mm 0.16 in4.1 mm
01:45 PM 66.4°F19.1°C 58.8°F14.9°C 77% 2.0 mph NE3.2 kmh NE 7.0 mph11.3 kmh 29.77 in1008.1 mb 0.00 in0.0 mm 0.00 in0.0 mm 0.16 in4.1 mm
01:50 PM 66.6°F19.2°C 59.5°F15.3°C 78% 1.0 mph ENE1.6 kmh ENE 5.0 mph8.0 kmh 29.77 in1008.1 mb 0.00 in0.0 mm 0.00 in0.0 mm 0.16 in4.1 mm
01:55 PM 67.1°F19.5°C 59.7°F15.4°C 77% 1.0 mph ENE1.6 kmh ENE 6.0 mph9.7 kmh 29.77 in1008.1 mb 0.00 in0.0 mm 0.00 in0.0 mm 0.16 in4.1 mm
02:00 PM 67.8°F19.9°C 59.7°F15.4°C 75% 1.0 mph ENE1.6 kmh ENE 6.0 mph9.7 kmh 29.77 in1008.1 mb 0.00 in0.0 mm 0.00 in0.0 mm 0.16 in4.1 mm
02:05 PM 68.9°F20.5°C 59.9°F15.5°C 73% 1.0 mph SSW1.6 kmh SSW 4.0 mph6.4 kmh 29.77 in1008.1 mb 0.00 in0.0 mm 0.00 in0.0 mm 0.16 in4.1 mm
02:10 PM 68.9°F20.5°C 58.6°F14.8°C 70% 2.0 mph SW3.2 kmh SW 5.0 mph8.0 kmh 29.77 in1008.1 mb 0.00 in0.0 mm 0.00 in0.0 mm 0.16 in4.1 mm
02:15 PM 68.9°F20.5°C 58.6°F14.8°C 70% 2.0 mph SW3.2 kmh SW 5.0 mph8.0 kmh 29.76 in1007.8 mb 0.00 in0.0 mm 0.00 in0.0 mm 0.16 in4.1 mm
02:20 PM 69.6°F20.9°C 59.0°F15.0°C 69% 1.0 mph WSW1.6 kmh WSW 2.0 mph3.2 kmh 29.76 in1007.8 mb 0.00 in0.0 mm 0.00 in0.0 mm 0.16 in4.1 mm
02:25 PM 70.0°F21.1°C 59.0°F15.0°C 68% Calm Calm 6.0 mph9.7 kmh 29.76 in1007.8 mb 0.00 in0.0 mm 0.00 in0.0 mm 0.16 in4.1 mm
02:30 PM 69.1°F20.6°C 58.8°F14.9°C 70% 1.0 mph NE1.6 kmh NE 6.0 mph9.7 kmh 29.76 in1007.8 mb 0.00 in0.0 mm 0.00 in0.0 mm 0.16 in4.1 mm
02:35 PM 68.7°F20.4°C 58.6°F14.8°C 70% 1.0 mph NE1.6 kmh NE 4.0 mph6.4 kmh 29.76 in1007.8 mb 0.00 in0.0 mm 0.00 in0.0 mm 0.16 in4.1 mm
02:40 PM 68.4°F20.2°C 58.3°F14.6°C 70% 1.0 mph NE1.6 kmh NE 4.0 mph6.4 kmh 29.76 in1007.8 mb 0.00 in0.0 mm 0.00 in0.0 mm 0.16 in4.1 mm
02:45 PM 68.2°F20.1°C 57.9°F14.4°C 70% 1.0 mph NE1.6 kmh NE 5.0 mph8.0 kmh 29.76 in1007.8 mb 0.00 in0.0 mm 0.00 in0.0 mm 0.16 in4.1 mm
02:50 PM 68.0°F20.0°C 58.3°F14.6°C 71% 1.0 mph NE1.6 kmh NE 5.0 mph8.0 kmh 29.76 in1007.8 mb 0.00 in0.0 mm 0.00 in0.0 mm 0.16 in4.1 mm
02:55 PM 68.5°F20.3°C 58.3°F14.6°C 70% Calm Calm 3.0 mph4.8 kmh 29.76 in1007.8 mb 0.00 in0.0 mm 0.00 in0.0 mm 0.16 in4.1 mm
03:00 PM 69.4°F20.8°C 58.5°F14.7°C 68% Calm Calm 3.0 mph4.8 kmh 29.76 in1007.8 mb 0.00 in0.0 mm 0.00 in0.0 mm 0.16 in4.1 mm
03:05 PM 69.6°F20.9°C 58.6°F14.8°C 68% Calm Calm 2.0 mph3.2 kmh 29.76 in1007.8 mb 0.00 in0.0 mm 0.00 in0.0 mm 0.16 in4.1 mm
03:10 PM 70.0°F21.1°C 58.1°F14.5°C 66% Calm Calm 5.0 mph8.0 kmh 29.76 in1007.8 mb 0.00 in0.0 mm 0.00 in0.0 mm 0.16 in4.1 mm
03:15 PM 69.6°F20.9°C 58.3°F14.6°C 67% 1.0 mph NNW1.6 kmh NNW 6.0 mph9.7 kmh 29.76 in1007.8 mb 0.00 in0.0 mm 0.00 in0.0 mm 0.16 in4.1 mm
03:20 PM 70.2°F21.2°C 58.3°F14.6°C 66% 1.0 mph NNW1.6 kmh NNW 6.0 mph9.7 kmh 29.76 in1007.8 mb 0.00 in0.0 mm 0.00 in0.0 mm 0.16 in4.1 mm
03:25 PM 70.5°F21.4°C 59.2°F15.1°C 67% 1.0 mph NW1.6 kmh NW 6.0 mph9.7 kmh 29.76 in1007.8 mb 0.00 in0.0 mm 0.00 in0.0 mm 0.16 in4.1 mm
03:30 PM 71.4°F21.9°C 58.6°F14.8°C 64% 1.0 mph NW1.6 kmh NW 7.0 mph11.3 kmh 29.76 in1007.8 mb 0.00 in0.0 mm 0.00 in0.0 mm 0.16 in4.1 mm
03:35 PM 71.2°F21.8°C 58.5°F14.7°C 64% 1.0 mph NW1.6 kmh NW 7.0 mph11.3 kmh 29.76 in1007.8 mb 0.00 in0.0 mm 0.00 in0.0 mm 0.16 in4.1 mm
03:40 PM 71.4°F21.9°C 58.6°F14.8°C 64% 1.0 mph WSW1.6 kmh WSW 5.0 mph8.0 kmh 29.76 in1007.8 mb 0.00 in0.0 mm 0.00 in0.0 mm 0.16 in4.1 mm
03:45 PM 71.8°F22.1°C 58.5°F14.7°C 63% 1.0 mph WSW1.6 kmh WSW 5.0 mph8.0 kmh 29.76 in1007.8 mb 0.00 in0.0 mm 0.00 in0.0 mm 0.16 in4.1 mm
03:50 PM 71.8°F22.1°C 58.5°F14.7°C 63% 1.0 mph N1.6 kmh N 4.0 mph6.4 kmh 29.76 in1007.8 mb 0.00 in0.0 mm 0.00 in0.0 mm 0.16 in4.1 mm
03:55 PM 71.2°F21.8°C 58.8°F14.9°C 65% 1.0 mph N1.6 kmh N 4.0 mph6.4 kmh 29.76 in1007.8 mb 0.00 in0.0 mm 0.00 in0.0 mm 0.16 in4.1 mm
04:00 PM 70.7°F21.5°C 58.3°F14.6°C 65% 1.0 mph NNW1.6 kmh NNW 6.0 mph9.7 kmh 29.76 in1007.8 mb 0.00 in0.0 mm 0.00 in0.0 mm 0.16 in4.1 mm
04:05 PM 70.2°F21.2°C 58.3°F14.6°C 66% 1.0 mph NNW1.6 kmh NNW 6.0 mph9.7 kmh 29.76 in1007.8 mb 0.00 in0.0 mm 0.00 in0.0 mm 0.16 in4.1 mm
04:15 PM 69.1°F20.6°C 57.2°F14.0°C 66% 1.0 mph NNW1.6 kmh NNW 4.0 mph6.4 kmh 29.76 in1007.8 mb 0.00 in0.0 mm 0.00 in0.0 mm 0.16 in4.1 mm
04:20 PM 68.9°F20.5°C 57.6°F14.2°C 67% 1.0 mph NNW1.6 kmh NNW 4.0 mph6.4 kmh 29.76 in1007.8 mb 0.00 in0.0 mm 0.00 in0.0 mm 0.16 in4.1 mm
04:25 PM 68.7°F20.4°C 56.8°F13.8°C 66% 1.0 mph NW1.6 kmh NW 2.0 mph3.2 kmh 29.77 in1008.1 mb 0.00 in0.0 mm 0.00 in0.0 mm 0.16 in4.1 mm
04:30 PM 68.7°F20.4°C 58.3°F14.6°C 69% Calm Calm 2.0 mph3.2 kmh 29.77 in1008.1 mb 0.00 in0.0 mm 0.00 in0.0 mm 0.16 in4.1 mm
04:35 PM 68.5°F20.3°C 57.6°F14.2°C 68% Calm Calm 4.0 mph6.4 kmh 29.77 in1008.1 mb 0.00 in0.0 mm 0.00 in0.0 mm 0.16 in4.1 mm
04:40 PM 68.5°F20.3°C 59.5°F15.3°C 73% 1.0 mph WSW1.6 kmh WSW 6.0 mph9.7 kmh 29.77 in1008.1 mb 0.00 in0.0 mm 0.00 in0.0 mm 0.16 in4.1 mm
04:45 PM 68.2°F20.1°C 60.3°F15.7°C 76% 1.0 mph W1.6 kmh W 7.0 mph11.3 kmh 29.77 in1008.1 mb 0.00 in0.0 mm 0.00 in0.0 mm 0.16 in4.1 mm
04:50 PM 67.6°F19.8°C 60.4°F15.8°C 78% 2.0 mph W3.2 kmh W 9.0 mph14.5 kmh 29.77 in1008.1 mb 0.00 in0.0 mm 0.00 in0.0 mm 0.16 in4.1 mm
04:55 PM 66.9°F19.4°C 60.6°F15.9°C 80% 2.0 mph WNW3.2 kmh WNW 9.0 mph14.5 kmh 29.77 in1008.1 mb 0.00 in0.0 mm 0.00 in0.0 mm 0.16 in4.1 mm
05:00 PM 66.2°F19.0°C 60.3°F15.7°C 81% 2.0 mph NW3.2 kmh NW 9.0 mph14.5 kmh 29.77 in1008.1 mb 0.00 in0.0 mm 0.00 in0.0 mm 0.16 in4.1 mm
05:05 PM 65.5°F18.6°C 59.7°F15.4°C 82% 3.0 mph NW4.8 kmh NW 11.0 mph17.7 kmh 29.77 in1008.1 mb 0.00 in0.0 mm 0.00 in0.0 mm 0.16 in4.1 mm
05:10 PM 64.8°F18.2°C 59.2°F15.1°C 82% 3.0 mph NW4.8 kmh NW 11.0 mph17.7 kmh 29.77 in1008.1 mb 0.00 in0.0 mm 0.00 in0.0 mm 0.16 in4.1 mm
05:15 PM 64.6°F18.1°C 59.2°F15.1°C 83% 2.0 mph NW3.2 kmh NW 6.0 mph9.7 kmh 29.77 in1008.1 mb 0.00 in0.0 mm 0.00 in0.0 mm 0.16 in4.1 mm
05:20 PM 64.2°F17.9°C 59.0°F15.0°C 83% 2.0 mph NW3.2 kmh NW 8.0 mph12.9 kmh 29.77 in1008.1 mb 0.00 in0.0 mm 0.00 in0.0 mm 0.16 in4.1 mm
05:25 PM 64.0°F17.8°C 58.5°F14.7°C 82% 2.0 mph NW3.2 kmh NW 8.0 mph12.9 kmh 29.77 in1008.1 mb 0.00 in0.0 mm 0.00 in0.0 mm 0.16 in4.1 mm
05:30 PM 64.2°F17.9°C 58.6°F14.8°C 82% 1.0 mph NW1.6 kmh NW 5.0 mph8.0 kmh 29.77 in1008.1 mb 0.00 in0.0 mm 0.00 in0.0 mm 0.16 in4.1 mm
05:35 PM 64.4°F18.0°C 58.8°F14.9°C 82% 1.0 mph NW1.6 kmh NW 4.0 mph6.4 kmh 29.77 in1008.1 mb 0.00 in0.0 mm 0.00 in0.0 mm 0.16 in4.1 mm
05:40 PM 64.4°F18.0°C 58.5°F14.7°C 81% 1.0 mph NW1.6 kmh NW 6.0 mph9.7 kmh 29.77 in1008.1 mb 0.00 in0.0 mm 0.00 in0.0 mm 0.16 in4.1 mm
05:45 PM 64.2°F17.9°C 58.3°F14.6°C 81% 2.0 mph NW3.2 kmh NW 7.0 mph11.3 kmh 29.77 in1008.1 mb 0.00 in0.0 mm 0.00 in0.0 mm 0.16 in4.1 mm
05:50 PM 64.2°F17.9°C 58.3°F14.6°C 81% 3.0 mph NW4.8 kmh NW 7.0 mph11.3 kmh 29.77 in1008.1 mb 0.00 in0.0 mm 0.00 in0.0 mm 0.16 in4.1 mm
05:55 PM 64.2°F17.9°C 58.3°F14.6°C 81% 3.0 mph NW4.8 kmh NW 6.0 mph9.7 kmh 29.77 in1008.1 mb 0.00 in0.0 mm 0.00 in0.0 mm 0.16 in4.1 mm
06:00 PM 64.2°F17.9°C 58.3°F14.6°C 81% 2.0 mph NW3.2 kmh NW 6.0 mph9.7 kmh 29.77 in1008.1 mb 0.00 in0.0 mm 0.00 in0.0 mm 0.16 in4.1 mm
06:05 PM 64.4°F18.0°C 58.5°F14.7°C 81% 2.0 mph NW3.2 kmh NW 5.0 mph8.0 kmh 29.78 in1008.5 mb 0.00 in0.0 mm 0.00 in0.0 mm 0.16 in4.1 mm
06:10 PM 64.8°F18.2°C 58.8°F14.9°C 81% 2.0 mph NW3.2 kmh NW 5.0 mph8.0 kmh 29.78 in1008.5 mb 0.00 in0.0 mm 0.00 in0.0 mm 0.16 in4.1 mm
06:15 PM 65.1°F18.4°C 58.8°F14.9°C 80% 1.0 mph NW1.6 kmh NW 5.0 mph8.0 kmh 29.78 in1008.5 mb 0.00 in0.0 mm 0.00 in0.0 mm 0.16 in4.1 mm
06:20 PM 65.7°F18.7°C 59.2°F15.1°C 80% 1.0 mph NW1.6 kmh NW 5.0 mph8.0 kmh 29.78 in1008.5 mb 0.00 in0.0 mm 0.00 in0.0 mm 0.16 in4.1 mm
06:25 PM 65.8°F18.8°C 59.2°F15.1°C 79% Calm Calm 3.0 mph4.8 kmh 29.78 in1008.5 mb 0.00 in0.0 mm 0.00 in0.0 mm 0.16 in4.1 mm
06:30 PM 65.8°F18.8°C 59.2°F15.1°C 79% 1.0 mph NW1.6 kmh NW 4.0 mph6.4 kmh 29.78 in1008.5 mb 0.00 in0.0 mm 0.00 in0.0 mm 0.16 in4.1 mm
06:35 PM 65.7°F18.7°C 59.4°F15.2°C 80% 1.0 mph NW1.6 kmh NW 4.0 mph6.4 kmh 29.78 in1008.5 mb 0.00 in0.0 mm 0.00 in0.0 mm 0.16 in4.1 mm
06:40 PM 65.5°F18.6°C 58.6°F14.8°C 79% 1.0 mph NW1.6 kmh NW 5.0 mph8.0 kmh 29.78 in1008.5 mb 0.00 in0.0 mm 0.00 in0.0 mm 0.16 in4.1 mm
06:45 PM 65.1°F18.4°C 58.8°F14.9°C 80% 1.0 mph NW1.6 kmh NW 5.0 mph8.0 kmh 29.78 in1008.5 mb 0.00 in0.0 mm 0.00 in0.0 mm 0.16 in4.1 mm
06:50 PM 64.9°F18.3°C 59.0°F15.0°C 81% 1.0 mph NW1.6 kmh NW 5.0 mph8.0 kmh 29.78 in1008.5 mb 0.00 in0.0 mm 0.00 in0.0 mm 0.16 in4.1 mm
06:55 PM 64.8°F18.2°C 58.8°F14.9°C 81% 1.0 mph NW1.6 kmh NW 6.0 mph9.7 kmh 29.79 in1008.8 mb 0.00 in0.0 mm 0.00 in0.0 mm 0.16 in4.1 mm
07:00 PM 64.4°F18.0°C 58.8°F14.9°C 82% 1.0 mph NW1.6 kmh NW 6.0 mph9.7 kmh 29.79 in1008.8 mb 0.00 in0.0 mm 0.00 in0.0 mm 0.16 in4.1 mm
07:05 PM 64.2°F17.9°C 58.6°F14.8°C 82% 1.0 mph NW1.6 kmh NW 4.0 mph6.4 kmh 29.79 in1008.8 mb 0.00 in0.0 mm 0.00 in0.0 mm 0.16 in4.1 mm
07:10 PM 64.0°F17.8°C 58.5°F14.7°C 82% 1.0 mph NW1.6 kmh NW 5.0 mph8.0 kmh 29.79 in1008.8 mb 0.00 in0.0 mm 0.00 in0.0 mm 0.16 in4.1 mm
07:15 PM 64.0°F17.8°C 58.8°F14.9°C 83% 1.0 mph NW1.6 kmh NW 5.0 mph8.0 kmh 29.79 in1008.8 mb 0.00 in0.0 mm 0.00 in0.0 mm 0.16 in4.1 mm
07:20 PM 63.9°F17.7°C 58.5°F14.7°C 83% 1.0 mph NW1.6 kmh NW 5.0 mph8.0 kmh 29.80 in1009.1 mb 0.00 in0.0 mm 0.00 in0.0 mm 0.16 in4.1 mm
07:25 PM 63.7°F17.6°C 58.8°F14.9°C 84% 1.0 mph NW1.6 kmh NW 5.0 mph8.0 kmh 29.80 in1009.1 mb 0.00 in0.0 mm 0.00 in0.0 mm 0.16 in4.1 mm
07:35 PM 63.3°F17.4°C 58.5°F14.7°C 84% 1.0 mph NW1.6 kmh NW 4.0 mph6.4 kmh 29.80 in1009.1 mb 0.00 in0.0 mm 0.00 in0.0 mm 0.16 in4.1 mm
07:40 PM 63.0°F17.2°C 58.5°F14.7°C 85% 1.0 mph NW1.6 kmh NW 4.0 mph6.4 kmh 29.80 in1009.1 mb 0.00 in0.0 mm 0.00 in0.0 mm 0.16 in4.1 mm
07:45 PM 62.8°F17.1°C 58.3°F14.6°C 85% 1.0 mph NW1.6 kmh NW 3.0 mph4.8 kmh 29.80 in1009.1 mb 0.00 in0.0 mm 0.00 in0.0 mm 0.16 in4.1 mm
07:50 PM 62.8°F17.1°C 58.5°F14.7°C 86% Calm Calm 3.0 mph4.8 kmh 29.80 in1009.1 mb 0.00 in0.0 mm 0.00 in0.0 mm 0.16 in4.1 mm
07:55 PM 62.4°F16.9°C 58.3°F14.6°C 86% 1.0 mph NW1.6 kmh NW 4.0 mph6.4 kmh 29.80 in1009.1 mb 0.00 in0.0 mm 0.00 in0.0 mm 0.16 in4.1 mm
08:00 PM 62.4°F16.9°C 58.1°F14.5°C 86% 1.0 mph NW1.6 kmh NW 4.0 mph6.4 kmh 29.80 in1009.1 mb 0.00 in0.0 mm 0.00 in0.0 mm 0.16 in4.1 mm
08:05 PM 62.2°F16.8°C 58.1°F14.5°C 86% Calm Calm 4.0 mph6.4 kmh 29.81 in1009.5 mb 0.00 in0.0 mm 0.00 in0.0 mm 0.16 in4.1 mm
08:10 PM 62.2°F16.8°C 58.3°F14.6°C 87% 1.0 mph N1.6 kmh N 4.0 mph6.4 kmh 29.81 in1009.5 mb 0.00 in0.0 mm 0.00 in0.0 mm 0.16 in4.1 mm
08:15 PM 62.1°F16.7°C 58.1°F14.5°C 87% 1.0 mph NNE1.6 kmh NNE 4.0 mph6.4 kmh 29.81 in1009.5 mb 0.00 in0.0 mm 0.00 in0.0 mm 0.16 in4.1 mm
08:20 PM 62.1°F16.7°C 58.1°F14.5°C 87% 1.0 mph NE1.6 kmh NE 4.0 mph6.4 kmh 29.81 in1009.5 mb 0.00 in0.0 mm 0.00 in0.0 mm 0.16 in4.1 mm
08:25 PM 62.1°F16.7°C 58.1°F14.5°C 87% 1.0 mph N1.6 kmh N 3.0 mph4.8 kmh 29.81 in1009.5 mb 0.00 in0.0 mm 0.00 in0.0 mm 0.16 in4.1 mm
08:30 PM 61.9°F16.6°C 57.9°F14.4°C 87% Calm Calm 2.0 mph3.2 kmh 29.82 in1009.8 mb 0.00 in0.0 mm 0.00 in0.0 mm 0.16 in4.1 mm
08:35 PM 61.9°F16.6°C 57.9°F14.4°C 87% Calm Calm 3.0 mph4.8 kmh 29.82 in1009.8 mb 0.00 in0.0 mm 0.00 in0.0 mm 0.16 in4.1 mm
08:40 PM 61.9°F16.6°C 57.9°F14.4°C 87% Calm Calm 3.0 mph4.8 kmh 29.82 in1009.8 mb 0.00 in0.0 mm 0.00 in0.0 mm 0.16 in4.1 mm
08:45 PM 61.7°F16.5°C 57.7°F14.3°C 87% Calm Calm 1.0 mph1.6 kmh 29.82 in1009.8 mb 0.00 in0.0 mm 0.00 in0.0 mm 0.16 in4.1 mm
08:50 PM 61.7°F16.5°C 57.7°F14.3°C 87% Calm Calm 3.0 mph4.8 kmh 29.82 in1009.8 mb 0.00 in0.0 mm 0.00 in0.0 mm 0.16 in4.1 mm
08:55 PM 61.7°F16.5°C 57.7°F14.3°C 87% Calm Calm 3.0 mph4.8 kmh 29.82 in1009.8 mb 0.00 in0.0 mm 0.00 in0.0 mm 0.16 in4.1 mm
09:00 PM 61.9°F16.6°C 57.6°F14.2°C 86% Calm Calm 3.0 mph4.8 kmh 29.82 in1009.8 mb 0.00 in0.0 mm 0.00 in0.0 mm 0.16 in4.1 mm
09:05 PM 61.9°F16.6°C 57.6°F14.2°C 86% Calm Calm 2.0 mph3.2 kmh 29.82 in1009.8 mb 0.00 in0.0 mm 0.00 in0.0 mm 0.16 in4.1 mm
09:10 PM 61.9°F16.6°C 57.2°F14.0°C 85% Calm Calm 1.0 mph1.6 kmh 29.82 in1009.8 mb 0.00 in0.0 mm 0.00 in0.0 mm 0.16 in4.1 mm
09:15 PM 61.9°F16.6°C 57.2°F14.0°C 85% Calm Calm 3.0 mph4.8 kmh 29.82 in1009.8 mb 0.00 in0.0 mm 0.00 in0.0 mm 0.16 in4.1 mm
09:20 PM 61.9°F16.6°C 57.2°F14.0°C 85% Calm Calm 3.0 mph4.8 kmh 29.82 in1009.8 mb 0.00 in0.0 mm 0.00 in0.0 mm 0.16 in4.1 mm
09:25 PM 61.7°F16.5°C 57.2°F14.0°C 85% Calm Calm 2.0 mph3.2 kmh 29.82 in1009.8 mb 0.00 in0.0 mm 0.00 in0.0 mm 0.16 in4.1 mm
09:30 PM 61.7°F16.5°C 57.2°F14.0°C 85% Calm Calm 2.0 mph3.2 kmh 29.82 in1009.8 mb 0.00 in0.0 mm 0.00 in0.0 mm 0.16 in4.1 mm
09:35 PM 61.7°F16.5°C 57.2°F14.0°C 85% Calm Calm 1.0 mph1.6 kmh 29.82 in1009.8 mb 0.00 in0.0 mm 0.00 in0.0 mm 0.16 in4.1 mm
09:40 PM 61.7°F16.5°C 57.2°F14.0°C 85% Calm Calm 4.0 mph6.4 kmh 29.82 in1009.8 mb 0.00 in0.0 mm 0.00 in0.0 mm 0.16 in4.1 mm
09:45 PM 61.7°F16.5°C 56.8°F13.8°C 84% Calm Calm 4.0 mph6.4 kmh 29.82 in1009.8 mb 0.00 in0.0 mm 0.00 in0.0 mm 0.16 in4.1 mm
09:50 PM 61.5°F16.4°C 57.0°F13.9°C 85% Calm Calm 1.0 mph1.6 kmh 29.82 in1009.8 mb 0.00 in0.0 mm 0.00 in0.0 mm 0.16 in4.1 mm
09:55 PM 61.5°F16.4°C 57.0°F13.9°C 85% Calm Calm 1.0 mph1.6 kmh 29.83 in1010.2 mb 0.00 in0.0 mm 0.00 in0.0 mm 0.16 in4.1 mm
10:00 PM 61.3°F16.3°C 56.8°F13.8°C 85% Calm Calm 2.0 mph3.2 kmh 29.83 in1010.2 mb 0.00 in0.0 mm 0.00 in0.0 mm 0.16 in4.1 mm
10:05 PM 61.3°F16.3°C 56.8°F13.8°C 85% Calm Calm 3.0 mph4.8 kmh 29.83 in1010.2 mb 0.00 in0.0 mm 0.00 in0.0 mm 0.16 in4.1 mm
10:10 PM 61.2°F16.2°C 56.3°F13.5°C 84% 1.0 mph NE1.6 kmh NE 4.0 mph6.4 kmh 29.83 in1010.2 mb 0.00 in0.0 mm 0.00 in0.0 mm 0.16 in4.1 mm
10:15 PM 61.2°F16.2°C 56.3°F13.5°C 84% 1.0 mph NE1.6 kmh NE 4.0 mph6.4 kmh 29.83 in1010.2 mb 0.00 in0.0 mm 0.00 in0.0 mm 0.16 in4.1 mm
10:20 PM 61.2°F16.2°C 56.3°F13.5°C 84% 1.0 mph ENE1.6 kmh ENE 3.0 mph4.8 kmh 29.83 in1010.2 mb 0.00 in0.0 mm 0.00 in0.0 mm 0.16 in4.1 mm
10:25 PM 61.2°F16.2°C 56.3°F13.5°C 84% 1.0 mph ENE1.6 kmh ENE 4.0 mph6.4 kmh 29.82 in1009.8 mb 0.00 in0.0 mm 0.00 in0.0 mm 0.16 in4.1 mm
10:30 PM 61.0°F16.1°C 56.1°F13.4°C 84% 1.0 mph ENE1.6 kmh ENE 4.0 mph6.4 kmh 29.82 in1009.8 mb 0.00 in0.0 mm 0.00 in0.0 mm 0.16 in4.1 mm
10:35 PM 60.8°F16.0°C 56.3°F13.5°C 85% Calm Calm 2.0 mph3.2 kmh 29.82 in1009.8 mb 0.00 in0.0 mm 0.00 in0.0 mm 0.16 in4.1 mm
10:40 PM 60.4°F15.8°C 55.9°F13.3°C 85% Calm Calm 1.0 mph1.6 kmh 29.82 in1009.8 mb 0.00 in0.0 mm 0.00 in0.0 mm 0.16 in4.1 mm
10:45 PM 60.3°F15.7°C 55.8°F13.2°C 85% Calm Calm 1.0 mph1.6 kmh 29.82 in1009.8 mb 0.00 in0.0 mm 0.00 in0.0 mm 0.16 in4.1 mm
10:50 PM 60.1°F15.6°C 55.8°F13.2°C 86% Calm Calm 1.0 mph1.6 kmh 29.83 in1010.2 mb 0.00 in0.0 mm 0.00 in0.0 mm 0.16 in4.1 mm
10:55 PM 59.9°F15.5°C 55.8°F13.2°C 86% Calm Calm 1.0 mph1.6 kmh 29.83 in1010.2 mb 0.00 in0.0 mm 0.00 in0.0 mm 0.16 in4.1 mm
11:00 PM 59.9°F15.5°C 55.8°F13.2°C 86% Calm Calm 1.0 mph1.6 kmh 29.83 in1010.2 mb 0.00 in0.0 mm 0.00 in0.0 mm 0.11 in2.8 mm
11:05 PM 59.9°F15.5°C 55.8°F13.2°C 86% Calm Calm 1.0 mph1.6 kmh 29.83 in1010.2 mb 0.00 in0.0 mm 0.00 in0.0 mm 0.11 in2.8 mm
11:10 PM 59.9°F15.5°C 55.8°F13.2°C 86% Calm Calm 1.0 mph1.6 kmh 29.83 in1010.2 mb 0.00 in0.0 mm 0.00 in0.0 mm 0.11 in2.8 mm
11:15 PM 60.1°F15.6°C 55.8°F13.2°C 86% Calm Calm 1.0 mph1.6 kmh 29.83 in1010.2 mb 0.00 in0.0 mm 0.00 in0.0 mm 0.11 in2.8 mm
11:20 PM 60.1°F15.6°C 55.8°F13.2°C 86% Calm Calm -- 29.83 in1010.2 mb 0.00 in0.0 mm 0.00 in0.0 mm 0.11 in2.8 mm
11:25 PM 60.1°F15.6°C 55.8°F13.2°C 86% Calm Calm -- 29.83 in1010.2 mb 0.00 in0.0 mm 0.00 in0.0 mm 0.11 in2.8 mm
11:30 PM 60.1°F15.6°C 56.1°F13.4°C 87% Calm Calm -- 29.82 in1009.8 mb 0.00 in0.0 mm 0.00 in0.0 mm 0.11 in2.8 mm
11:35 PM 59.9°F15.5°C 55.9°F13.3°C 87% Calm Calm 1.0 mph1.6 kmh 29.83 in1010.2 mb 0.00 in0.0 mm 0.00 in0.0 mm 0.11 in2.8 mm
11:40 PM 59.5°F15.3°C 56.1°F13.4°C 88% Calm Calm 2.0 mph3.2 kmh 29.83 in1010.2 mb 0.00 in0.0 mm 0.00 in0.0 mm 0.11 in2.8 mm
11:45 PM 59.5°F15.3°C 55.9°F13.3°C 88% Calm Calm 3.0 mph4.8 kmh 29.83 in1010.2 mb 0.00 in0.0 mm 0.00 in0.0 mm 0.11 in2.8 mm
11:50 PM 59.4°F15.2°C 55.8°F13.2°C 88% Calm Calm 4.0 mph6.4 kmh 29.83 in1010.2 mb 0.00 in0.0 mm 0.00 in0.0 mm 0.11 in2.8 mm
11:55 PM 59.5°F15.3°C 55.9°F13.3°C 88% Calm Calm 4.0 mph6.4 kmh 29.83 in1010.2 mb 0.00 in0.0 mm 0.00 in0.0 mm 0.11 in2.8 mm